createdAt,value
2017-04-09T00:00:18.314Z,57.89
2017-04-09T00:01:18.330Z,58.55
2017-04-09T00:02:18.347Z,57.89
2017-04-09T00:03:18.366Z,58.17
2017-04-09T00:04:18.381Z,58.46
2017-04-09T00:05:18.397Z,58.46
2017-04-09T00:06:18.422Z,58.46
2017-04-09T00:07:18.435Z,58.46
2017-04-09T00:08:18.138Z,57.79
2017-04-09T00:09:18.671Z,58.46
2017-04-09T00:10:18.485Z,58.94
2017-04-09T00:11:18.502Z,57.98
2017-04-09T00:12:18.578Z,57.89
2017-04-09T00:13:18.538Z,58.46
2017-04-09T00:14:18.552Z,58.65
2017-04-09T00:15:18.571Z,58.46
2017-04-09T00:16:18.717Z,58.84
2017-04-09T00:17:18.793Z,58.84
2017-04-09T00:18:18.699Z,58.75
2017-04-09T00:19:18.421Z,58.65
2017-04-09T00:20:18.753Z,58.65
2017-04-09T00:21:18.761Z,58.65
2017-04-09T00:22:18.769Z,58.75
2017-04-09T00:23:18.800Z,58.65
2017-04-09T00:24:18.797Z,58.55
2017-04-09T00:25:18.744Z,58.65
2017-04-09T00:26:18.768Z,58.55
2017-04-09T00:27:18.799Z,58.55
2017-04-09T00:28:18.849Z,58.65
2017-04-09T00:29:18.816Z,58.65
2017-04-09T00:30:18.827Z,58.46
2017-04-09T00:31:18.846Z,58.17
2017-04-09T00:32:18.862Z,58.52
2017-04-09T00:33:18.881Z,58.33
2017-04-09T00:34:18.899Z,59.03
2017-04-09T00:35:18.914Z,59.38
2017-04-09T00:36:18.931Z,59.09
2017-04-09T00:37:18.950Z,58.81
2017-04-09T00:38:18.966Z,59.09
2017-04-09T00:39:18.983Z,59.09
2017-04-09T00:40:18.995Z,59.12
2017-04-09T00:41:19.014Z,58.91
2017-04-09T00:42:19.033Z,59.19
2017-04-09T00:43:19.044Z,58.91
2017-04-09T00:44:19.067Z,58.91
2017-04-09T00:45:19.086Z,58.91
2017-04-09T00:46:19.100Z,58.72
2017-04-09T00:47:19.115Z,58.81
2017-04-09T00:48:19.174Z,58.72
2017-04-09T00:49:19.156Z,59
2017-04-09T00:50:19.168Z,58.81
2017-04-09T00:51:19.183Z,58.81
2017-04-09T00:52:19.201Z,58.81
2017-04-09T00:53:19.221Z,59
2017-04-09T00:54:19.236Z,58.81
2017-04-09T00:55:19.252Z,58.91
2017-04-09T00:56:19.274Z,59.09
2017-04-09T00:57:19.285Z,58.81
2017-04-09T00:58:19.306Z,58.91
2017-04-09T00:59:19.008Z,58.72
2017-04-09T01:00:19.334Z,58.91
2017-04-09T01:01:19.041Z,59.28
2017-04-09T01:02:19.369Z,58.91
2017-04-09T01:03:19.075Z,59.19
2017-04-09T01:04:19.403Z,59.19
2017-04-09T01:05:19.109Z,58.91
2017-04-09T01:06:19.440Z,59.09
2017-04-09T01:07:19.453Z,58.72
2017-04-09T01:08:19.473Z,58.72
2017-04-09T01:09:19.175Z,59.09
2017-04-09T01:10:19.507Z,59.38
2017-04-09T01:11:19.522Z,59.09
2017-04-09T01:12:19.536Z,59.38
2017-04-09T01:13:19.557Z,59.48
2017-04-09T01:14:19.574Z,59.19
2017-04-09T01:15:19.588Z,58.91
2017-04-09T01:16:19.603Z,59.19
2017-04-09T01:17:19.624Z,59.57
2017-04-09T01:18:19.657Z,59.48
2017-04-09T01:19:19.658Z,59.19
2017-04-09T01:20:19.671Z,59.57
2017-04-09T01:21:19.688Z,59.48
2017-04-09T01:22:19.709Z,59.38
2017-04-09T01:23:19.722Z,59.48
2017-04-09T01:24:19.738Z,59.48
2017-04-09T01:25:19.755Z,59.48
2017-04-09T01:26:19.773Z,59.19
2017-04-09T01:27:19.786Z,59.48
2017-04-09T01:28:19.803Z,59.28
2017-04-09T01:29:19.824Z,60.05
2017-04-09T01:30:19.928Z,59.64
2017-04-09T01:31:19.855Z,59.54
2017-04-09T01:32:19.874Z,59.54
2017-04-09T01:33:19.889Z,59.64
2017-04-09T01:34:19.904Z,59.67
2017-04-09T01:35:19.922Z,59.83
2017-04-09T01:36:19.936Z,59.74
2017-04-09T01:37:19.957Z,59.76
2017-04-09T01:38:20.002Z,59.83
2017-04-09T01:39:20.015Z,59.74
2017-04-09T01:40:20.011Z,60.02
2017-04-09T01:41:20.025Z,59.83
2017-04-09T01:42:20.041Z,60.02
2017-04-09T01:43:20.174Z,59.83
2017-04-09T01:44:20.183Z,59.64
2017-04-09T01:45:20.181Z,59.64
2017-04-09T01:46:20.113Z,59.64
2017-04-09T01:47:20.122Z,59.64
2017-04-09T01:48:20.261Z,59.92
2017-04-09T01:49:20.250Z,59.83
2017-04-09T01:50:20.270Z,59.83
2017-04-09T01:51:20.397Z,60.21
2017-04-09T01:52:20.412Z,60.3
2017-04-09T01:53:20.420Z,60.21
2017-04-09T01:54:20.120Z,60.21
2017-04-09T01:55:20.437Z,60.21
2017-04-09T01:56:20.127Z,60.02
2017-04-09T01:57:20.444Z,60.02
2017-04-09T01:58:20.454Z,60.02
2017-04-09T01:59:20.466Z,59.92
2017-04-09T02:00:20.460Z,60.21
2017-04-09T02:01:20.129Z,59.92
2017-04-09T02:02:20.584Z,59.83
2017-04-09T02:03:20.584Z,60.4
2017-04-09T02:04:20.589Z,59.74
2017-04-09T02:05:20.609Z,60.02
2017-04-09T02:06:20.614Z,60.02
2017-04-09T02:07:20.626Z,59.92
2017-04-09T02:08:20.558Z,59.92
2017-04-09T02:09:20.571Z,59.92
2017-04-09T02:10:20.579Z,60.02
2017-04-09T02:11:20.305Z,60.02
2017-04-09T02:12:20.623Z,60.11
2017-04-09T02:13:20.635Z,59.83
2017-04-09T02:14:20.694Z,59.92
2017-04-09T02:15:20.652Z,59.83
2017-04-09T02:16:20.608Z,60.02
2017-04-09T02:17:20.764Z,60.3
2017-04-09T02:18:20.635Z,60.11
2017-04-09T02:19:20.647Z,59.92
2017-04-09T02:20:20.663Z,60.02
2017-04-09T02:21:20.689Z,60.11
2017-04-09T02:22:20.699Z,60.21
2017-04-09T02:23:20.707Z,60.11
2017-04-09T02:24:20.728Z,60.11
2017-04-09T02:25:20.745Z,60.11
2017-04-09T02:26:20.759Z,60.02
2017-04-09T02:27:20.782Z,60.21
2017-04-09T02:28:20.792Z,60.21
2017-04-09T02:29:20.805Z,60.02
2017-04-09T02:30:20.825Z,60.4
2017-04-09T02:31:20.839Z,60.3
2017-04-09T02:32:20.547Z,60.21
2017-04-09T02:33:20.559Z,60.02
2017-04-09T02:34:20.574Z,60.3
2017-04-09T02:35:20.592Z,60.21
2017-04-09T02:36:20.615Z,59.89
2017-04-09T02:37:20.623Z,60.37
2017-04-09T02:38:20.639Z,60.69
2017-04-09T02:39:20.975Z,60.18
2017-04-09T02:40:20.982Z,60.3
2017-04-09T02:41:20.688Z,60.75
2017-04-09T02:42:20.709Z,60.59
2017-04-09T02:43:21.031Z,60.78
2017-04-09T02:44:21.051Z,60.27
2017-04-09T02:45:21.065Z,60.37
2017-04-09T02:46:21.087Z,60.27
2017-04-09T02:47:21.095Z,60.46
2017-04-09T02:48:21.118Z,61.04
2017-04-09T02:49:21.130Z,60.37
2017-04-09T02:50:21.146Z,61.04
2017-04-09T02:51:21.160Z,60.46
2017-04-09T02:52:20.865Z,60.37
2017-04-09T02:53:21.198Z,60.56
2017-04-09T02:54:21.211Z,60.66
2017-04-09T02:55:21.226Z,60.56
2017-04-09T02:56:21.243Z,60.75
2017-04-09T02:57:21.258Z,60.66
2017-04-09T02:58:21.272Z,60.75
2017-04-09T02:59:21.291Z,60.75
2017-04-09T03:00:21.308Z,60.75
2017-04-09T03:01:21.323Z,60.94
2017-04-09T03:02:21.336Z,60.56
2017-04-09T03:03:21.351Z,60.94
2017-04-09T03:04:21.375Z,61.13
2017-04-09T03:05:21.388Z,60.75
2017-04-09T03:06:21.401Z,60.94
2017-04-09T03:07:21.420Z,60.94
2017-04-09T03:08:21.434Z,60.94
2017-04-09T03:09:21.458Z,60.85
2017-04-09T03:10:21.469Z,60.46
2017-04-09T03:11:21.486Z,60.85
2017-04-09T03:12:21.499Z,60.56
2017-04-09T03:13:21.205Z,60.66
2017-04-09T03:14:21.530Z,60.75
2017-04-09T03:15:21.549Z,60.85
2017-04-09T03:16:21.565Z,60.75
2017-04-09T03:17:21.581Z,60.85
2017-04-09T03:18:21.597Z,61.04
2017-04-09T03:19:21.614Z,61.13
2017-04-09T03:20:21.622Z,61.22
2017-04-09T03:21:21.641Z,60.94
2017-04-09T03:22:21.659Z,61.32
2017-04-09T03:23:21.675Z,61.22
2017-04-09T03:24:21.688Z,60.94
2017-04-09T03:25:21.705Z,60.85
2017-04-09T03:26:21.719Z,60.66
2017-04-09T03:27:21.735Z,60.94
2017-04-09T03:28:21.755Z,60.66
2017-04-09T03:29:21.770Z,61.04
2017-04-09T03:30:21.790Z,60.85
2017-04-09T03:31:21.800Z,61.13
2017-04-09T03:32:21.818Z,61.04
2017-04-09T03:33:21.877Z,60.94
2017-04-09T03:34:21.850Z,61.22
2017-04-09T03:35:21.552Z,60.94
2017-04-09T03:36:21.880Z,61.13
2017-04-09T03:37:21.898Z,61.22
2017-04-09T03:38:21.911Z,60.94
2017-04-09T03:39:21.932Z,61.42
2017-04-09T03:40:21.943Z,61.42
2017-04-09T03:41:21.961Z,61.22
2017-04-09T03:42:21.977Z,61.51
2017-04-09T03:43:21.993Z,61.32
2017-04-09T03:44:22.007Z,61.32
2017-04-09T03:45:22.026Z,61.32
2017-04-09T03:46:22.035Z,61.7
2017-04-09T03:47:22.055Z,61.7
2017-04-09T03:48:22.071Z,61.32
2017-04-09T03:49:22.093Z,61.32
2017-04-09T03:50:22.102Z,61.51
2017-04-09T03:51:22.120Z,61.7
2017-04-09T03:52:22.131Z,61.32
2017-04-09T03:53:22.148Z,61.42
2017-04-09T03:54:22.164Z,61.22
2017-04-09T03:55:22.185Z,61.42
2017-04-09T03:56:22.194Z,61.22
2017-04-09T03:57:22.210Z,61.99
2017-04-09T03:58:22.227Z,61.99
2017-04-09T03:59:22.243Z,61.8
2017-04-09T04:00:22.257Z,61.8
2017-04-09T04:01:22.272Z,61.9
2017-04-09T04:02:22.295Z,61.42
2017-04-09T04:03:22.309Z,61.9
2017-04-09T04:04:22.326Z,61.9
2017-04-09T04:05:22.339Z,61.42
2017-04-09T04:06:22.354Z,61.8
2017-04-09T04:07:22.369Z,61.9
2017-04-09T04:08:22.382Z,61.8
2017-04-09T04:09:22.407Z,61.8
2017-04-09T04:10:22.422Z,61.86
2017-04-09T04:11:22.438Z,61.42
2017-04-09T04:12:22.448Z,61.9
2017-04-09T04:13:22.463Z,61.9
2017-04-09T04:14:22.478Z,61.42
2017-04-09T04:15:22.182Z,61.8
2017-04-09T04:16:22.512Z,61.58
2017-04-09T04:17:22.645Z,61.61
2017-04-09T04:18:22.654Z,61.61
2017-04-09T04:19:22.653Z,61.8
2017-04-09T04:20:22.662Z,61.32
2017-04-09T04:21:22.695Z,61.99
2017-04-09T04:22:22.702Z,61.86
2017-04-09T04:23:22.711Z,61.67
2017-04-09T04:24:22.720Z,61.99
2017-04-09T04:25:22.654Z,61.96
2017-04-09T04:26:22.355Z,61.96
2017-04-09T04:27:22.737Z,61.86
2017-04-09T04:28:22.745Z,61.77
2017-04-09T04:29:22.815Z,61.86
2017-04-09T04:30:22.824Z,61.86
2017-04-09T04:31:22.821Z,61.96
2017-04-09T04:32:22.830Z,61.86
2017-04-09T04:33:22.839Z,61.96
2017-04-09T04:34:22.793Z,61.96
2017-04-09T04:35:22.858Z,61.96
2017-04-09T04:36:22.822Z,61.58
2017-04-09T04:37:22.838Z,61.96
2017-04-09T04:38:22.858Z,61.86
2017-04-09T04:39:22.871Z,61.96
2017-04-09T04:40:22.885Z,62.05
2017-04-09T04:41:22.908Z,61.86
2017-04-09T04:42:22.929Z,62.24
2017-04-09T04:43:22.933Z,62.05
2017-04-09T04:44:22.945Z,62.72
2017-04-09T04:45:22.959Z,62.43
2017-04-09T04:46:22.979Z,61.96
2017-04-09T04:47:22.991Z,62.24
2017-04-09T04:48:23.007Z,62.24
2017-04-09T04:49:23.026Z,62.05
2017-04-09T04:50:23.038Z,62.34
2017-04-09T04:51:23.056Z,62.53
2017-04-09T04:52:23.068Z,62.62
2017-04-09T04:53:22.773Z,62.53
2017-04-09T04:54:23.102Z,62.62
2017-04-09T04:55:23.116Z,62.53
2017-04-09T04:56:23.169Z,62.43
2017-04-09T04:57:23.148Z,62.53
2017-04-09T04:58:23.166Z,62.53
2017-04-09T04:59:23.185Z,62.53
2017-04-09T05:00:23.198Z,62.43
2017-04-09T05:01:23.212Z,62.34
2017-04-09T05:02:23.253Z,62.53
2017-04-09T05:03:23.251Z,62.43
2017-04-09T05:04:23.259Z,62.24
2017-04-09T05:05:23.271Z,62.34
2017-04-09T05:06:23.287Z,62.43
2017-04-09T05:07:23.300Z,62.43
2017-04-09T05:08:23.327Z,62.72
2017-04-09T05:09:23.353Z,62.62
2017-04-09T05:10:23.351Z,62.43
2017-04-09T05:11:23.451Z,62.34
2017-04-09T05:12:23.384Z,62.53
2017-04-09T05:13:23.401Z,62.53
2017-04-09T05:14:23.414Z,62.62
2017-04-09T05:15:23.437Z,62.72
2017-04-09T05:16:23.134Z,62.53
2017-04-09T05:17:23.151Z,62.24
2017-04-09T05:18:23.475Z,62.91
2017-04-09T05:19:23.494Z,62.53
2017-04-09T05:20:23.199Z,62.81
2017-04-09T05:21:23.522Z,63.29
2017-04-09T05:22:23.537Z,63.2
2017-04-09T05:23:23.556Z,63.67
2017-04-09T05:24:23.564Z,63.57
2017-04-09T05:25:23.578Z,63.42
2017-04-09T05:26:23.598Z,63.8
2017-04-09T05:27:23.610Z,63.48
2017-04-09T05:28:23.623Z,63.13
2017-04-09T05:29:23.642Z,63.13
2017-04-09T05:30:23.660Z,63.6
2017-04-09T05:31:23.671Z,63.6
2017-04-09T05:32:23.685Z,63.13
2017-04-09T05:33:23.711Z,62.94
2017-04-09T05:34:23.717Z,63.23
2017-04-09T05:35:23.733Z,63.04
2017-04-09T05:36:23.759Z,62.75
2017-04-09T05:37:23.768Z,63.13
2017-04-09T05:38:23.780Z,62.94
2017-04-09T05:39:23.796Z,62.85
2017-04-09T05:40:23.814Z,62.75
2017-04-09T05:41:23.829Z,62.75
2017-04-09T05:42:23.843Z,62.85
2017-04-09T05:43:23.861Z,62.65
2017-04-09T05:44:23.874Z,62.75
2017-04-09T05:45:23.890Z,62.56
2017-04-09T05:46:23.902Z,62.85
2017-04-09T05:47:23.930Z,62.75
2017-04-09T05:48:23.933Z,62.75
2017-04-09T05:49:23.952Z,62.75
2017-04-09T05:50:23.657Z,62.65
2017-04-09T05:51:23.984Z,62.65
2017-04-09T05:52:23.997Z,62.65
2017-04-09T05:53:24.017Z,62.65
2017-04-09T05:54:24.032Z,62.75
2017-04-09T05:55:24.047Z,62.65
2017-04-09T05:56:24.064Z,62.94
2017-04-09T05:57:23.769Z,63.13
2017-04-09T05:58:24.116Z,62.65
2017-04-09T05:59:24.117Z,62.94
2017-04-09T06:00:24.127Z,63.13
2017-04-09T06:01:24.142Z,63.32
2017-04-09T06:02:24.164Z,63.04
2017-04-09T06:03:24.173Z,63.13
2017-04-09T06:04:24.187Z,63.04
2017-04-09T06:05:24.205Z,63.13
2017-04-09T06:06:24.223Z,63.04
2017-04-09T06:07:24.237Z,63.23
2017-04-09T06:08:24.245Z,63.13
2017-04-09T06:09:24.263Z,63.7
2017-04-09T06:10:23.970Z,63.8
2017-04-09T06:11:24.294Z,63.6
2017-04-09T06:12:24.313Z,63.8
2017-04-09T06:13:24.320Z,63.8
2017-04-09T06:14:24.393Z,63.89
2017-04-09T06:15:24.354Z,63.23
2017-04-09T06:16:24.373Z,63.42
2017-04-09T06:17:24.381Z,63.23
2017-04-09T06:18:24.402Z,63.32
2017-04-09T06:19:24.119Z,62.94
2017-04-09T06:20:24.481Z,62.75
2017-04-09T06:21:24.449Z,62.65
2017-04-09T06:22:24.465Z,62.75
2017-04-09T06:23:24.496Z,63.04
2017-04-09T06:24:24.495Z,63.13
2017-04-09T06:25:24.629Z,63.04
2017-04-09T06:26:24.214Z,62.85
2017-04-09T06:27:24.562Z,62.37
2017-04-09T06:28:24.564Z,62.75
2017-04-09T06:29:24.577Z,62.65
2017-04-09T06:30:24.693Z,62.78
2017-04-09T06:31:24.707Z,62.88
2017-04-09T06:32:24.633Z,62.78
2017-04-09T06:33:24.640Z,62.78
2017-04-09T06:34:24.650Z,63.17
2017-04-09T06:35:24.665Z,62.88
2017-04-09T06:36:24.681Z,62.78
2017-04-09T06:37:24.693Z,63.07
2017-04-09T06:38:24.708Z,63.17
2017-04-09T06:39:24.725Z,63.17
2017-04-09T06:40:24.742Z,62.68
2017-04-09T06:41:24.756Z,63.07
2017-04-09T06:42:24.774Z,63.07
2017-04-09T06:43:24.784Z,63.35
2017-04-09T06:44:24.806Z,63.35
2017-04-09T06:45:24.817Z,63.35
2017-04-09T06:46:24.836Z,63.35
2017-04-09T06:47:24.862Z,63.17
2017-04-09T06:48:24.874Z,63.17
2017-04-09T06:49:24.902Z,63.64
2017-04-09T06:50:24.899Z,63.35
2017-04-09T06:51:24.915Z,63.26
2017-04-09T06:52:24.930Z,63.73
2017-04-09T06:53:24.949Z,63.29
2017-04-09T06:54:24.965Z,63.76
2017-04-09T06:55:25.078Z,63.57
2017-04-09T06:56:24.993Z,63.67
2017-04-09T06:57:25.039Z,63.39
2017-04-09T06:58:25.030Z,63.48
2017-04-09T06:59:25.040Z,63.96
2017-04-09T07:00:25.057Z,63.76
2017-04-09T07:01:25.080Z,63.39
2017-04-09T07:02:25.193Z,63.86
2017-04-09T07:03:25.208Z,63.48
2017-04-09T07:04:25.219Z,63.96
2017-04-09T07:05:25.228Z,64.09
2017-04-09T07:06:25.211Z,64.65
2017-04-09T07:07:25.258Z,64.28
2017-04-09T07:08:25.224Z,64.75
2017-04-09T07:09:25.324Z,64.65
2017-04-09T07:10:25.316Z,64.65
2017-04-09T07:11:25.306Z,64.65
2017-04-09T07:12:25.264Z,64.56
2017-04-09T07:13:25.260Z,64.56
2017-04-09T07:14:24.982Z,64.65
2017-04-09T07:15:25.296Z,64.94
2017-04-09T07:16:25.308Z,64.88
2017-04-09T07:17:25.329Z,64.31
2017-04-09T07:18:25.346Z,64.02
2017-04-09T07:19:25.362Z,64.12
2017-04-09T07:20:25.374Z,64.4
2017-04-09T07:21:25.399Z,64.4
2017-04-09T07:22:25.540Z,64.21
2017-04-09T07:23:25.426Z,64.21
2017-04-09T07:24:25.440Z,64.12
2017-04-09T07:25:25.571Z,64.31
2017-04-09T07:26:25.563Z,64.34
2017-04-09T07:27:25.176Z,64.25
2017-04-09T07:28:25.606Z,64.81
2017-04-09T07:29:25.610Z,64.05
2017-04-09T07:30:25.618Z,64.25
2017-04-09T07:31:25.617Z,64.34
2017-04-09T07:32:25.663Z,64.25
2017-04-09T07:33:25.694Z,64.53
2017-04-09T07:34:25.298Z,64.62
2017-04-09T07:35:25.711Z,64.65
2017-04-09T07:36:25.711Z,64.47
2017-04-09T07:37:25.719Z,64.18
2017-04-09T07:38:25.735Z,64.37
2017-04-09T07:39:25.371Z,64.18
2017-04-09T07:40:25.827Z,64.18
2017-04-09T07:41:25.816Z,63.89
2017-04-09T07:42:25.842Z,63.7
2017-04-09T07:43:25.842Z,63.45
2017-04-09T07:44:25.967Z,64.02
2017-04-09T07:45:25.965Z,64.02
2017-04-09T07:46:25.975Z,63.54
2017-04-09T07:47:25.939Z,63.35
2017-04-09T07:48:25.976Z,63.73
2017-04-09T07:49:25.659Z,63.64
2017-04-09T07:50:25.978Z,63.93
2017-04-09T07:51:25.992Z,63.45
2017-04-09T07:52:25.998Z,63.57
2017-04-09T07:53:26.030Z,63
2017-04-09T07:54:26.150Z,63.1
2017-04-09T07:55:26.136Z,63
2017-04-09T07:56:25.811Z,62.71
2017-04-09T07:57:26.131Z,62.9
2017-04-09T07:58:26.139Z,62.52
2017-04-09T07:59:26.018Z,61.95
2017-04-09T08:00:26.037Z,62.08
2017-04-09T08:01:26.053Z,61.98
2017-04-09T08:02:26.073Z,62.27
2017-04-09T08:03:26.090Z,62.08
2017-04-09T08:04:26.106Z,61.98
2017-04-09T08:05:26.122Z,61.98
2017-04-09T08:06:26.138Z,62.08
2017-04-09T08:07:26.159Z,61.79
2017-04-09T08:08:26.175Z,61.98
2017-04-09T08:09:26.191Z,61.41
2017-04-09T08:10:26.208Z,61.72
2017-04-09T08:11:26.229Z,61.54
2017-04-09T08:12:26.250Z,61.44
2017-04-09T08:13:26.269Z,61.15
2017-04-09T08:14:26.282Z,61.25
2017-04-09T08:15:26.299Z,61.15
2017-04-09T08:16:26.320Z,61.05
2017-04-09T08:17:26.331Z,61.54
2017-04-09T08:18:26.348Z,61.08
2017-04-09T08:19:26.478Z,61.18
2017-04-09T08:20:26.485Z,61.37
2017-04-09T08:21:26.091Z,61.47
2017-04-09T08:22:26.516Z,60.89
2017-04-09T08:23:26.503Z,60.41
2017-04-09T08:24:26.147Z,60.89
2017-04-09T08:25:26.163Z,60.51
2017-04-09T08:26:26.520Z,60.51
2017-04-09T08:27:26.531Z,60.32
2017-04-09T08:28:26.540Z,60.64
2017-04-09T08:29:26.546Z,60.44
2017-04-09T08:30:26.682Z,60.25
2017-04-09T08:31:26.618Z,60.06
2017-04-09T08:32:26.625Z,60.25
2017-04-09T08:33:26.753Z,59.58
2017-04-09T08:34:26.761Z,59.3
2017-04-09T08:35:26.784Z,60
2017-04-09T08:36:26.769Z,59.52
2017-04-09T08:37:26.638Z,59.04
2017-04-09T08:38:26.956Z,59.61
2017-04-09T08:39:26.944Z,59.13
2017-04-09T08:40:26.954Z,59.42
2017-04-09T08:41:26.971Z,59.61
2017-04-09T08:42:26.968Z,58.84
2017-04-09T08:43:27.110Z,58.94
2017-04-09T08:44:26.674Z,59.13
2017-04-09T08:45:26.992Z,58.17
2017-04-09T08:46:27.097Z,58.11
2017-04-09T08:47:27.076Z,58.2
2017-04-09T08:48:26.773Z,58.01
2017-04-09T08:49:27.105Z,57.63
2017-04-09T08:50:27.103Z,57.63
2017-04-09T08:51:27.113Z,57.92
2017-04-09T08:52:26.809Z,57.24
2017-04-09T08:53:27.063Z,57.53
2017-04-09T08:54:27.113Z,57.46
2017-04-09T08:55:27.132Z,57.56
2017-04-09T08:56:27.086Z,57.46
2017-04-09T08:57:27.088Z,56.98
2017-04-09T08:58:27.133Z,57.28
2017-04-09T08:59:27.147Z,56.7
2017-04-09T09:00:27.173Z,56.51
2017-04-09T09:01:27.154Z,56.6
2017-04-09T09:02:27.373Z,56.44
2017-04-09T09:03:27.180Z,56.05
2017-04-09T09:04:27.203Z,55.86
2017-04-09T09:05:27.220Z,55.38
2017-04-09T09:06:27.258Z,55
2017-04-09T09:07:27.259Z,55.1
2017-04-09T09:08:27.281Z,55.32
2017-04-09T09:09:27.418Z,55.22
2017-04-09T09:10:27.417Z,54.35
2017-04-09T09:11:27.426Z,54.35
2017-04-09T09:12:27.456Z,54.25
2017-04-09T09:13:27.466Z,54.55
2017-04-09T09:14:27.477Z,54.35
2017-04-09T09:15:27.489Z,54.77
2017-04-09T09:16:27.482Z,54.38
2017-04-09T09:17:27.492Z,54.09
2017-04-09T09:18:27.559Z,54
2017-04-09T09:19:27.558Z,53.61
2017-04-09T09:20:27.569Z,53.23
2017-04-09T09:21:27.578Z,53.52
2017-04-09T09:22:27.557Z,53.42
2017-04-09T09:23:27.694Z,53.61
2017-04-09T09:24:27.694Z,53.13
2017-04-09T09:25:27.712Z,53.13
2017-04-09T09:26:27.732Z,52.75
2017-04-09T09:27:27.750Z,52.84
2017-04-09T09:28:27.769Z,52.68
2017-04-09T09:29:27.926Z,52.77
2017-04-09T09:30:27.840Z,52.87
2017-04-09T09:31:27.843Z,52.77
2017-04-09T09:32:27.850Z,52.48
2017-04-09T09:33:27.992Z,52.2
2017-04-09T09:34:28.000Z,52.2
2017-04-09T09:35:28.010Z,52.1
2017-04-09T09:36:28.013Z,52.12
2017-04-09T09:37:28.031Z,52.03
2017-04-09T09:38:27.972Z,52.03
2017-04-09T09:39:27.980Z,50.87
2017-04-09T09:40:27.993Z,50.97
2017-04-09T09:41:28.025Z,50.42
2017-04-09T09:42:28.032Z,50.04
2017-04-09T09:43:28.029Z,49.74
2017-04-09T09:44:28.039Z,49.27
2017-04-09T09:45:28.021Z,49.36
2017-04-09T09:46:28.044Z,49.46
2017-04-09T09:47:28.063Z,49.55
2017-04-09T09:48:28.087Z,49.17
2017-04-09T09:49:28.101Z,49.55
2017-04-09T09:50:28.123Z,49.1
2017-04-09T09:51:28.143Z,49.29
2017-04-09T09:52:27.855Z,48.81
2017-04-09T09:53:28.190Z,48.81
2017-04-09T09:54:28.210Z,49
2017-04-09T09:55:28.230Z,48.43
2017-04-09T09:56:28.251Z,48.61
2017-04-09T09:57:28.271Z,48.64
2017-04-09T09:58:28.298Z,48.74
2017-04-09T09:59:28.365Z,48.35
2017-04-09T10:00:28.335Z,48.25
2017-04-09T10:01:28.355Z,48.06
2017-04-09T10:02:28.377Z,47.31
2017-04-09T10:03:28.396Z,47.29
2017-04-09T10:04:28.422Z,47.41
2017-04-09T10:05:28.443Z,46.64
2017-04-09T10:06:28.464Z,46.25
2017-04-09T10:07:28.486Z,46.06
2017-04-09T10:08:28.508Z,45.48
2017-04-09T10:09:28.526Z,45.39
2017-04-09T10:10:28.549Z,45.6
2017-04-09T10:11:28.571Z,45.51
2017-04-09T10:12:28.597Z,45.7
2017-04-09T10:13:28.616Z,45.41
2017-04-09T10:14:28.636Z,45.03
2017-04-09T10:15:28.662Z,44.93
2017-04-09T10:16:28.686Z,44.83
2017-04-09T10:17:28.703Z,44.73
2017-04-09T10:18:28.725Z,44.76
2017-04-09T10:19:28.747Z,44.46
2017-04-09T10:20:28.819Z,44.46
2017-04-09T10:21:28.790Z,44.46
2017-04-09T10:22:28.812Z,43.98
2017-04-09T10:23:28.835Z,43.98
2017-04-09T10:24:28.861Z,43.6
2017-04-09T10:25:28.882Z,42.83
2017-04-09T10:26:28.902Z,42.54
2017-04-09T10:27:28.933Z,42.44
2017-04-09T10:28:28.953Z,42.36
2017-04-09T10:29:28.970Z,42.46
2017-04-09T10:30:28.993Z,42.08
2017-04-09T10:31:29.014Z,41.6
2017-04-09T10:32:29.042Z,41.4
2017-04-09T10:33:29.063Z,41.2
2017-04-09T10:34:29.089Z,41.4
2017-04-09T10:35:29.109Z,41.13
2017-04-09T10:36:29.130Z,40.26
2017-04-09T10:37:29.171Z,39.95
2017-04-09T10:38:29.192Z,39.69
2017-04-09T10:39:29.199Z,39.29
2017-04-09T10:40:29.220Z,39.39
2017-04-09T10:41:29.315Z,39.59
2017-04-09T10:42:29.323Z,39.69
2017-04-09T10:43:28.977Z,39.97
2017-04-09T10:44:29.331Z,39.69
2017-04-09T10:45:29.341Z,39.8
2017-04-09T10:46:29.486Z,40.38
2017-04-09T10:47:29.496Z,40.38
2017-04-09T10:48:29.527Z,40.28
2017-04-09T10:49:29.525Z,40.86
2017-04-09T10:50:29.753Z,40.78
2017-04-09T10:51:29.603Z,40.2
2017-04-09T10:52:29.602Z,40.11
2017-04-09T10:53:29.647Z,39.34
2017-04-09T10:54:29.755Z,39.24
2017-04-09T10:55:29.776Z,38.95
2017-04-09T10:56:29.783Z,38.97
2017-04-09T10:57:29.796Z,38.95
2017-04-09T10:58:29.835Z,38.68
2017-04-09T10:59:29.810Z,38.87
2017-04-09T11:00:29.809Z,38.97
2017-04-09T11:01:29.817Z,38.87
2017-04-09T11:02:29.832Z,38.58
2017-04-09T11:03:29.904Z,38.78
2017-04-09T11:04:29.913Z,38.6
2017-04-09T11:05:29.922Z,38.79
2017-04-09T11:06:29.932Z,38.79
2017-04-09T11:07:29.930Z,38.6
2017-04-09T11:08:29.976Z,38.7
2017-04-09T11:09:29.994Z,38.99
2017-04-09T11:10:30.016Z,38.89
2017-04-09T11:11:29.979Z,38.89
2017-04-09T11:12:29.986Z,38.7
2017-04-09T11:13:30.007Z,38.71
2017-04-09T11:14:30.032Z,38.53
2017-04-09T11:15:30.056Z,38.43
2017-04-09T11:16:30.096Z,37.94
2017-04-09T11:17:30.103Z,38.04
2017-04-09T11:18:30.130Z,37.55
2017-04-09T11:19:30.152Z,38.33
2017-04-09T11:20:30.279Z,38.43
2017-04-09T11:21:30.313Z,38.43
2017-04-09T11:22:30.319Z,38.15
2017-04-09T11:23:30.327Z,37.96
2017-04-09T11:24:30.336Z,37.38
2017-04-09T11:25:30.337Z,37.96
2017-04-09T11:26:30.344Z,38.06
2017-04-09T11:27:30.416Z,38.25
2017-04-09T11:28:30.412Z,37.77
2017-04-09T11:29:30.413Z,37.19
2017-04-09T11:30:30.550Z,37.09
2017-04-09T11:31:30.550Z,37.11
2017-04-09T11:32:30.577Z,37.09
2017-04-09T11:33:30.596Z,36.91
2017-04-09T11:34:30.626Z,37.01
2017-04-09T11:35:30.699Z,37.11
2017-04-09T11:36:30.709Z,37.21
2017-04-09T11:37:30.706Z,36.14
2017-04-09T11:38:30.720Z,37.01
2017-04-09T11:39:30.860Z,37.01
2017-04-09T11:40:30.867Z,36.82
2017-04-09T11:41:30.897Z,37.03
2017-04-09T11:42:30.901Z,36.74
2017-04-09T11:43:30.913Z,35.86
2017-04-09T11:44:30.921Z,35.48
2017-04-09T11:45:30.908Z,35.19
2017-04-09T11:46:30.884Z,35.09
2017-04-09T11:47:30.896Z,34.8
2017-04-09T11:48:30.918Z,34.22
2017-04-09T11:49:30.912Z,34.12
2017-04-09T11:50:30.939Z,34.31
2017-04-09T11:51:30.981Z,34.31
2017-04-09T11:52:30.988Z,34.12
2017-04-09T11:53:31.019Z,34.22
2017-04-09T11:54:31.037Z,34.41
2017-04-09T11:55:31.069Z,34.51
2017-04-09T11:56:31.093Z,34.72
2017-04-09T11:57:30.803Z,34.81
2017-04-09T11:58:31.144Z,34.91
2017-04-09T11:59:31.275Z,34.81
2017-04-09T12:00:31.283Z,34.23
2017-04-09T12:01:31.316Z,34.53
2017-04-09T12:02:31.352Z,34.72
2017-04-09T12:03:31.369Z,34.54
2017-04-09T12:04:31.403Z,34.04
2017-04-09T12:05:31.393Z,34.72
2017-04-09T12:06:31.400Z,34.25
2017-04-09T12:07:31.376Z,33.96
2017-04-09T12:08:31.529Z,33.86
2017-04-09T12:09:31.526Z,34.06
2017-04-09T12:10:31.572Z,34.35
2017-04-09T12:11:31.584Z,34.44
2017-04-09T12:12:31.732Z,34.25
2017-04-09T12:13:31.743Z,34.74
2017-04-09T12:14:31.756Z,34.46
2017-04-09T12:15:31.789Z,34.16
2017-04-09T12:16:31.512Z,34.27
2017-04-09T12:17:31.812Z,33.88
2017-04-09T12:18:31.812Z,33.98
2017-04-09T12:19:31.820Z,34.17
2017-04-09T12:20:31.888Z,34.08
2017-04-09T12:21:31.842Z,33.88
2017-04-09T12:22:31.848Z,33.69
2017-04-09T12:23:31.883Z,33.98
2017-04-09T12:24:31.915Z,33.98
2017-04-09T12:25:31.953Z,34.17
2017-04-09T12:26:31.932Z,34.08
2017-04-09T12:27:32.005Z,33.7
2017-04-09T12:28:31.931Z,33.39
2017-04-09T12:29:31.645Z,33.7
2017-04-09T12:30:31.987Z,33.31
2017-04-09T12:31:32.015Z,33.31
2017-04-09T12:32:32.085Z,33.12
2017-04-09T12:33:32.065Z,33.12
2017-04-09T12:34:32.097Z,33.22
2017-04-09T12:35:32.126Z,33.41
2017-04-09T12:36:32.151Z,33.61
2017-04-09T12:37:32.176Z,33.51
2017-04-09T12:38:32.207Z,32.94
2017-04-09T12:39:32.233Z,33.33
2017-04-09T12:40:46.842Z,33.43
2017-04-09T12:41:32.285Z,33.23
2017-04-09T12:42:32.316Z,33.33
2017-04-09T12:43:32.344Z,32.55
2017-04-09T12:44:32.369Z,32.84
2017-04-09T12:45:32.397Z,32.65
2017-04-09T12:46:32.460Z,32.55
2017-04-09T12:47:32.452Z,32.55
2017-04-09T12:48:32.478Z,32.65
2017-04-09T12:49:32.505Z,32.76
2017-04-09T12:50:32.534Z,32.08
2017-04-09T12:51:32.244Z,32.37
2017-04-09T12:52:32.584Z,31.97
2017-04-09T12:53:32.612Z,31.88
2017-04-09T12:54:32.328Z,32.18
2017-04-09T12:55:32.356Z,31.6